Time;durP1;ratioP1;P1;durP2;ratioP2;P2;SDS_P1;SDS_P2;PMS_P1;PMS_P2;Temp;Humidity;BMP_temperature;BMP_pressure;BME280_temperature;BME280_humidity;BME280_pressure;Samples;Min_cycle;Max_cycle;Signal;HPM_P1;HPM_P2
2022/03/07 00:00:08;;;;;;;12.77;11.57;;;-0.20;99.90;;;;;;4939986;28;89636;-33
2022/03/07 00:02:34;;;;;;;17.00;12.85;;;-0.30;99.90;;;;;;4940147;28;88243;-31
2022/03/07 00:04:59;;;;;;;19.33;12.95;;;-0.30;99.90;;;;;;4940315;28;89656;-36
2022/03/07 00:07:25;;;;;;;15.07;12.52;;;-0.30;99.90;;;;;;4970153;22;90334;-33
2022/03/07 00:09:51;;;;;;;14.52;13.10;;;-0.30;99.90;;;;;;4920782;28;89505;-32
2022/03/07 00:12:16;;;;;;;14.55;12.55;;;-0.30;99.90;;;;;;4921285;28;89671;-35
2022/03/07 00:14:42;;;;;;;15.00;12.27;;;-0.30;99.90;;;;;;4924178;28;89637;-32
2022/03/07 00:17:07;;;;;;;16.92;12.07;;;-0.40;99.90;;;;;;4923708;28;90346;-35
2022/03/07 00:19:33;;;;;;;15.25;12.15;;;-0.40;99.90;;;;;;4924054;28;88635;-30
2022/03/07 00:21:58;;;;;;;14.13;12.45;;;-0.40;99.90;;;;;;4923856;28;89288;-29
2022/03/07 00:24:24;;;;;;;15.18;13.18;;;-0.40;99.90;;;;;;4923941;28;88482;-31
2022/03/07 00:26:50;;;;;;;16.60;13.20;;;-0.40;99.90;;;;;;4922125;28;90206;-30
2022/03/07 00:29:16;;;;;;;13.52;12.18;;;-0.50;99.90;;;;;;4923937;28;89816;-38
2022/03/07 00:31:42;;;;;;;14.43;12.50;;;-0.50;99.90;;;;;;4924421;28;88144;-30
2022/03/07 00:34:07;;;;;;;18.10;12.60;;;-0.40;99.90;;;;;;4923948;28;88160;-30
2022/03/07 00:36:33;;;;;;;14.18;12.68;;;-0.50;99.90;;;;;;4923472;28;91399;-32
2022/03/07 00:38:58;;;;;;;18.15;12.68;;;-0.50;99.90;;;;;;4922910;28;90806;-32
2022/03/07 00:41:24;;;;;;;12.68;11.38;;;-0.60;99.90;;;;;;4923024;28;89303;-32
2022/03/07 00:43:49;;;;;;;16.10;13.65;;;-0.60;99.90;;;;;;4923813;28;87569;-32
2022/03/07 00:46:15;;;;;;;19.40;11.65;;;-0.60;99.90;;;;;;4923686;28;90215;-33
2022/03/07 00:48:41;;;;;;;15.60;12.07;;;-0.60;99.90;;;;;;4923235;28;90013;-30
2022/03/07 00:51:06;;;;;;;13.45;11.95;;;-0.60;99.90;;;;;;4923184;28;88886;-32
2022/03/07 00:53:32;;;;;;;14.80;12.60;;;-0.60;99.90;;;;;;4923575;28;87596;-36
2022/03/07 00:55:57;;;;;;;15.32;13.38;;;-0.60;99.90;;;;;;4923210;28;90449;-30
2022/03/07 00:58:23;;;;;;;16.23;12.75;;;-0.60;99.90;;;;;;4923134;28;90420;-33
2022/03/07 01:00:50;;;;;;;14.38;12.55;;;-0.70;99.90;;;;;;4923343;28;88254;-31
2022/03/07 01:03:17;;;;;;;18.02;12.60;;;-0.60;99.90;;;;;;4923001;28;89210;-32
2022/03/07 01:05:44;;;;;;;12.85;11.55;;;-0.60;99.90;;;;;;4923190;28;90200;-34
2022/03/07 01:08:10;;;;;;;17.92;13.68;;;-0.60;99.90;;;;;;4922532;28;89676;-32
2022/03/07 01:10:37;;;;;;;16.67;12.77;;;-0.60;99.90;;;;;;4922865;28;88306;-30
2022/03/07 01:13:03;;;;;;;18.80;13.15;;;-0.70;99.90;;;;;;4923672;28;88036;-31
2022/03/07 01:15:29;;;;;;;12.05;10.93;;;-0.70;99.90;;;;;;4922906;28;91141;-30
2022/03/07 01:17:59;;;;;;;16.10;11.93;;;-0.70;99.90;;;;;;4923010;28;89607;-31
2022/03/07 01:20:25;;;;;;;14.52;12.45;;;-0.70;99.90;;;;;;4922717;28;88591;-32
2022/03/07 01:22:50;;;;;;;14.00;12.30;;;-0.80;99.90;;;;;;4923261;28;89217;-31
2022/03/07 01:25:16;;;;;;;14.52;12.93;;;-0.80;99.90;;;;;;4922004;28;90162;-32
2022/03/07 01:27:42;;;;;;;13.48;11.52;;;-0.80;99.90;;;;;;4923145;28;89986;-34
2022/03/07 01:30:08;;;;;;;14.32;12.63;;;-0.90;99.90;;;;;;4922905;28;89980;-30
2022/03/07 01:32:34;;;;;;;17.90;13.18;;;-0.90;99.90;;;;;;4922247;28;88743;-33
2022/03/07 01:35:00;;;;;;;15.90;12.90;;;-0.90;99.90;;;;;;4923304;28;90431;-31
2022/03/07 01:37:25;;;;;;;17.33;13.18;;;-0.90;99.90;;;;;;4922096;28;89781;-31
2022/03/07 01:39:51;;;;;;;15.80;13.25;;;-0.90;99.90;;;;;;4922803;28;87727;-30
2022/03/07 01:42:16;;;;;;;13.80;12.43;;;-1.00;99.90;;;;;;4922523;28;90579;-31
2022/03/07 01:44:42;;;;;;;18.48;12.90;;;-0.90;99.90;;;;;;4922845;28;89373;-30
2022/03/07 01:47:08;;;;;;;17.98;13.27;;;-0.90;99.90;;;;;;4923359;28;88886;-32
2022/03/07 01:49:33;;;;;;;16.52;12.95;;;-0.90;99.90;;;;;;4922096;28;87653;-32
2022/03/07 01:51:59;;;;;;;16.60;13.07;;;-1.00;99.90;;;;;;4922498;28;89464;-32
2022/03/07 01:54:25;;;;;;;16.60;12.48;;;-1.00;99.90;;;;;;4921980;28;90961;-30
2022/03/07 01:56:53;;;;;;;14.88;12.80;;;-1.00;99.90;;;;;;4922416;28;90277;-31
2022/03/07 01:59:24;;;;;;;15.65;12.88;;;-1.00;99.90;;;;;;4922603;28;87951;-32
2022/03/07 02:01:51;;;;;;;15.85;12.52;;;-1.00;99.90;;;;;;4922549;28;89005;-32
2022/03/07 02:04:17;;;;;;;17.70;14.20;;;-1.00;99.90;;;;;;4922398;28;91100;-32
2022/03/07 02:06:44;;;;;;;18.35;13.35;;;-1.10;99.90;;;;;;4921520;28;89442;-30
2022/03/07 02:09:11;;;;;;;21.10;14.35;;;-1.10;99.90;;;;;;4921939;28;87696;-30
2022/03/07 02:11:37;;;;;;;22.80;13.57;;;-1.10;99.90;;;;;;4922427;28;88278;-33
2022/03/07 02:14:22;;;;;;;14.93;12.95;;;-1.10;99.90;;;;;;4921733;28;90011;-31
2022/03/07 02:16:48;;;;;;;15.18;12.60;;;-1.10;99.90;;;;;;4922410;28;89733;-34
2022/03/07 02:19:14;;;;;;;15.02;12.95;;;-1.10;99.90;;;;;;4922581;28;87967;-32
2022/03/07 02:21:44;;;;;;;18.10;14.43;;;-1.20;99.90;;;;;;4921571;28;88900;-32
2022/03/07 02:24:10;;;;;;;16.42;14.05;;;-1.20;99.90;;;;;;4921734;28;89081;-31
2022/03/07 02:26:35;;;;;;;16.77;13.80;;;-1.20;99.90;;;;;;4921814;28;89984;-32
2022/03/07 02:29:01;;;;;;;18.80;14.05;;;-1.20;99.90;;;;;;4921650;28;89555;-34
2022/03/07 02:31:29;;;;;;;16.13;12.85;;;-1.20;99.90;;;;;;4922126;28;88978;-29
2022/03/07 02:33:55;;;;;;;21.27;14.10;;;-1.20;99.90;;;;;;4922030;28;90316;-31
2022/03/07 02:36:21;;;;;;;14.55;13.05;;;-1.20;99.90;;;;;;4920712;28;89995;-32
2022/03/07 02:38:46;;;;;;;15.77;13.27;;;-1.20;99.90;;;;;;4921523;28;88265;-33
2022/03/07 02:41:12;;;;;;;15.75;12.70;;;-1.20;99.90;;;;;;4922594;28;87747;-31
2022/03/07 02:43:38;;;;;;;14.15;12.70;;;-1.20;99.90;;;;;;4921160;28;90092;-31
2022/03/07 02:46:04;;;;;;;16.75;12.80;;;-1.20;99.90;;;;;;4921585;28;89174;-31
2022/03/07 02:48:30;;;;;;;17.10;12.20;;;-1.20;99.90;;;;;;4921223;28;89820;-32
2022/03/07 02:50:57;;;;;;;14.77;12.75;;;-1.20;99.90;;;;;;4921729;28;88998;-32
2022/03/07 02:53:23;;;;;;;19.98;13.27;;;-1.20;99.90;;;;;;4921315;28;91143;-31
2022/03/07 02:55:48;;;;;;;15.60;14.02;;;-1.20;99.90;;;;;;4921258;28;92986;-32
2022/03/07 02:58:14;;;;;;;14.90;13.05;;;-1.30;99.90;;;;;;4921902;28;87840;-31
2022/03/07 03:00:40;;;;;;;15.48;13.85;;;-1.30;99.90;;;;;;4921378;28;88898;-32
2022/03/07 03:03:05;;;;;;;18.67;14.38;;;-1.30;99.90;;;;;;4921268;28;90544;-31
2022/03/07 03:05:31;;;;;;;18.48;15.18;;;-1.30;99.90;;;;;;4921442;28;89717;-31
2022/03/07 03:07:57;;;;;;;15.85;12.57;;;-1.30;99.90;;;;;;4920296;28;90201;-32
2022/03/07 03:10:23;;;;;;;16.85;14.88;;;-1.30;99.90;;;;;;4921370;28;88791;-34
2022/03/07 03:12:49;;;;;;;16.20;13.93;;;-1.30;99.90;;;;;;4921004;28;90476;-34
2022/03/07 03:15:15;;;;;;;14.10;12.52;;;-1.30;99.90;;;;;;4921511;28;89583;-30
2022/03/07 03:17:42;;;;;;;19.52;13.98;;;-1.30;99.90;;;;;;4921660;28;87980;-33
2022/03/07 03:20:12;;;;;;;19.08;15.18;;;-1.30;99.90;;;;;;4921106;28;89214;-36
2022/03/07 03:22:41;;;;;;;16.65;13.50;;;-1.30;99.90;;;;;;4920370;28;90310;-31
2022/03/07 03:25:07;;;;;;;17.98;13.95;;;-1.30;99.90;;;;;;4920775;28;89671;-32
2022/03/07 03:27:34;;;;;;;19.20;13.65;;;-1.30;99.90;;;;;;4921080;28;89284;-31
2022/03/07 03:29:59;;;;;;;19.70;14.68;;;-1.30;99.90;;;;;;4921555;28;88648;-30
2022/03/07 03:32:26;;;;;;;17.45;13.00;;;-1.30;99.90;;;;;;4920477;28;90404;-30
2022/03/07 03:34:52;;;;;;;19.67;13.23;;;-1.30;99.90;;;;;;4920622;28;89514;-35
2022/03/07 03:37:18;;;;;;;14.60;12.48;;;-1.30;99.90;;;;;;4921127;28;89996;-30
2022/03/07 03:39:44;;;;;;;18.90;14.48;;;-1.30;99.90;;;;;;4920926;28;87681;-31
2022/03/07 03:42:09;;;;;;;17.60;14.60;;;-1.30;99.90;;;;;;4921173;28;90206;-32
2022/03/07 03:44:35;;;;;;;15.90;14.20;;;-1.30;99.90;;;;;;4919957;28;92085;-33
2022/03/07 03:47:01;;;;;;;16.58;13.88;;;-1.30;99.90;;;;;;4921188;28;87959;-32
2022/03/07 03:49:28;;;;;;;19.08;15.60;;;-1.40;99.90;;;;;;4924161;28;88090;-29
2022/03/07 03:51:54;;;;;;;19.23;17.23;;;-1.40;99.90;;;;;;4924407;28;90414;-31
2022/03/07 03:54:20;;;;;;;20.13;17.45;;;-1.40;99.90;;;;;;4923917;28;89930;-32
2022/03/07 03:56:45;;;;;;;21.85;16.80;;;-1.30;99.90;;;;;;4924088;28;89466;-32
2022/03/07 03:59:11;;;;;;;19.83;15.10;;;-1.30;99.90;;;;;;4923832;28;88713;-32
2022/03/07 04:01:36;;;;;;;19.83;17.58;;;-1.30;99.90;;;;;;4923863;28;90473;-32
2022/03/07 04:04:02;;;;;;;22.75;18.05;;;-1.40;99.90;;;;;;4923846;28;89833;-32
2022/03/07 04:06:28;;;;;;;19.52;17.50;;;-1.30;99.90;;;;;;4923674;28;89439;-31
2022/03/07 04:09:25;;;;;;;24.38;18.48;;;-1.30;99.90;;;;;;4923110;28;87721;-31
2022/03/07 04:11:54;;;;;;;19.08;16.30;;;-1.30;99.90;;;;;;4890778;28;90176;-31
2022/03/07 04:14:19;;;;;;;18.77;16.08;;;-1.30;99.90;;;;;;4923293;28;90321;-32
2022/03/07 04:16:45;;;;;;;21.58;16.30;;;-1.30;99.90;;;;;;4924604;28;88427;-34
2022/03/07 04:19:11;;;;;;;18.50;16.33;;;-1.30;99.90;;;;;;4923673;28;87697;-31
2022/03/07 04:21:39;;;;;;;19.90;16.80;;;-1.30;99.90;;;;;;4923686;28;89857;-35
2022/03/07 04:24:06;;;;;;;20.73;15.50;;;-1.30;99.90;;;;;;4923971;28;89758;-33
2022/03/07 04:26:32;;;;;;;20.60;16.23;;;-1.30;99.90;;;;;;4923244;28;89319;-32
2022/03/07 04:28:58;;;;;;;17.63;15.63;;;-1.30;99.90;;;;;;4923997;28;89765;-31
2022/03/07 04:31:23;;;;;;;19.45;14.75;;;-1.30;99.90;;;;;;4923775;28;89985;-28
2022/03/07 04:33:49;;;;;;;19.98;15.13;;;-1.30;99.90;;;;;;4923418;28;90163;-30
2022/03/07 04:36:17;;;;;;;17.00;15.07;;;-1.30;99.90;;;;;;4923760;28;89697;-31
2022/03/07 04:38:43;;;;;;;19.35;14.50;;;-1.30;99.90;;;;;;4924807;28;89696;-30
2022/03/07 04:41:08;;;;;;;23.35;14.95;;;-1.30;99.90;;;;;;4923380;28;90973;-33
2022/03/07 04:43:34;;;;;;;18.15;13.45;;;-1.30;99.90;;;;;;4923138;28;89446;-30
2022/03/07 04:46:00;;;;;;;17.67;14.65;;;-1.30;99.90;;;;;;4922981;28;88268;-31
2022/03/07 04:48:25;;;;;;;18.65;15.43;;;-1.30;99.90;;;;;;4923283;28;90622;-34
2022/03/07 04:50:51;;;;;;;19.92;14.85;;;-1.30;99.90;;;;;;4923614;28;90150;-29
2022/03/07 04:53:17;;;;;;;18.10;14.13;;;-1.30;99.90;;;;;;4922477;28;89881;-31
2022/03/07 04:55:43;;;;;;;17.27;13.15;;;-1.30;99.90;;;;;;4923595;28;88954;-33
2022/03/07 04:58:08;;;;;;;19.38;13.20;;;-1.30;99.90;;;;;;4922587;28;88247;-35
2022/03/07 05:00:34;;;;;;;15.50;13.80;;;-1.20;99.90;;;;;;4923482;28;90230;-30
2022/03/07 05:02:59;;;;;;;16.27;13.40;;;-1.20;99.90;;;;;;4922993;28;91248;-33
2022/03/07 05:05:25;;;;;;;14.68;13.18;;;-1.20;99.90;;;;;;4922681;28;89572;-31
2022/03/07 05:07:51;;;;;;;17.77;12.82;;;-1.20;99.90;;;;;;4923183;28;88524;-30
2022/03/07 05:10:20;;;;;;;16.45;14.27;;;-1.20;99.90;;;;;;4922276;28;90379;-30
2022/03/07 05:12:47;;;;;;;16.58;13.85;;;-1.10;99.90;;;;;;4922735;28;90097;-30
2022/03/07 05:15:13;;;;;;;20.67;15.40;;;-1.10;99.90;;;;;;4922240;28;90133;-30
2022/03/07 05:17:48;;;;;;;19.45;16.02;;;-1.00;99.90;;;;;;4922366;28;87686;-32
2022/03/07 05:20:16;;;;;;;22.38;17.73;;;-1.00;99.90;;;;;;4923327;28;90378;-30
2022/03/07 05:22:42;;;;;;;25.93;18.90;;;-0.90;99.90;;;;;;4923106;28;88881;-33
2022/03/07 05:25:09;;;;;;;24.50;20.38;;;-0.90;99.90;;;;;;4922801;28;88323;-30
2022/03/07 05:27:35;;;;;;;19.83;17.30;;;-0.80;99.90;;;;;;4922391;28;89747;-30
2022/03/07 05:30:01;;;;;;;19.25;15.68;;;-0.80;99.90;;;;;;4922955;28;88954;-34
2022/03/07 05:32:27;;;;;;;25.58;18.52;;;-0.80;99.90;;;;;;4922631;28;90681;-31
2022/03/07 05:34:52;;;;;;;18.30;16.30;;;-0.70;99.90;;;;;;4922163;28;89165;-31
2022/03/07 05:37:18;;;;;;;19.10;17.08;;;-0.70;99.90;;;;;;4922079;28;88827;-30
2022/03/07 05:39:44;;;;;;;24.38;19.17;;;-0.70;99.90;;;;;;4922588;28;90054;-32
2022/03/07 05:42:10;;;;;;;19.63;17.52;;;-0.60;99.90;;;;;;4923377;28;88699;-29
2022/03/07 05:44:35;;;;;;;21.00;16.25;;;-0.60;99.90;;;;;;4922150;28;87984;-30
2022/03/07 05:47:01;;;;;;;24.13;19.58;;;-0.60;99.90;;;;;;4922624;28;87804;-34
2022/03/07 05:49:26;;;;;;;22.98;16.92;;;-0.50;99.90;;;;;;4921891;28;90177;-33
2022/03/07 05:51:52;;;;;;;24.17;17.73;;;-0.50;99.90;;;;;;4922287;28;89384;-35
2022/03/07 05:54:18;;;;;;;23.23;16.73;;;-0.50;99.90;;;;;;4922446;28;87997;-30
2022/03/07 05:56:43;;;;;;;21.38;17.75;;;-0.50;99.90;;;;;;4921878;28;88756;-29
2022/03/07 05:59:09;;;;;;;23.08;18.00;;;-0.40;99.90;;;;;;4920730;28;90495;-31
2022/03/07 06:01:35;;;;;;;20.70;18.48;;;-0.40;99.90;;;;;;4921801;28;89522;-29
2022/03/07 06:04:00;;;;;;;22.80;17.42;;;-0.40;99.90;;;;;;4922346;28;89902;-35
2022/03/07 06:06:26;;;;;;;26.67;19.02;;;-0.40;99.90;;;;;;4922446;28;89111;-30
2022/03/07 06:08:52;;;;;;;23.52;19.05;;;-0.30;99.90;;;;;;4921471;28;91114;-32
2022/03/07 06:11:17;;;;;;;23.70;18.20;;;-0.30;99.90;;;;;;4920152;28;90472;-29
2022/03/07 06:13:43;;;;;;;20.38;17.65;;;-0.40;99.90;;;;;;4921561;28;87614;-30
2022/03/07 06:16:09;;;;;;;23.40;17.33;;;-0.30;99.90;;;;;;4922609;28;90161;-34
2022/03/07 06:18:34;;;;;;;24.58;18.23;;;-0.30;99.90;;;;;;4922101;28;89643;-32
2022/03/07 06:21:00;;;;;;;21.58;17.77;;;-0.30;99.90;;;;;;4922070;28;90111;-31
2022/03/07 06:23:25;;;;;;;27.95;17.65;;;-0.30;99.90;;;;;;4920627;28;89436;-31
2022/03/07 06:25:51;;;;;;;20.95;17.90;;;-0.30;99.90;;;;;;4921195;28;88230;-30
2022/03/07 06:28:17;;;;;;;24.58;17.45;;;-0.30;99.90;;;;;;4921617;28;90056;-34
2022/03/07 06:30:46;;;;;;;21.05;18.55;;;-0.30;99.90;;;;;;4921463;28;90490;-33
2022/03/07 06:33:13;;;;;;;22.40;17.40;;;-0.30;99.90;;;;;;4921806;28;89760;-34
2022/03/07 06:35:39;;;;;;;19.27;17.23;;;-0.20;99.90;;;;;;4921258;28;88714;-33
2022/03/07 06:38:04;;;;;;;27.50;23.15;;;-0.20;99.90;;;;;;4921861;28;90244;-31
2022/03/07 06:40:31;;;;;;;18.85;15.80;;;-0.20;99.90;;;;;;4921886;28;90169;-32
2022/03/07 06:42:57;;;;;;;18.27;15.65;;;-0.30;99.90;;;;;;4922328;28;89838;-35
2022/03/07 06:45:22;;;;;;;26.50;16.77;;;-0.40;99.90;;;;;;4863387;28;88286;-33
2022/03/07 06:47:48;;;;;;;25.27;22.50;;;-0.60;99.90;;;;;;4917676;28;90270;-33
2022/03/07 06:50:16;;;;;;;23.52;21.02;;;-0.60;99.90;;;;;;4941137;28;89816;-30
2022/03/07 06:52:41;;;;;;;21.52;19.33;;;-0.70;99.90;;;;;;4941070;28;88484;-30
2022/03/07 06:55:08;;;;;;;19.75;16.88;;;-0.80;99.90;;;;;;4941557;28;89397;-32
2022/03/07 06:57:33;;;;;;;22.08;17.77;;;-0.80;99.90;;;;;;4941134;28;92146;-30
2022/03/07 06:59:59;;;;;;;22.88;18.08;;;-0.80;99.90;;;;;;4940379;28;89866;-31
2022/03/07 07:02:24;;;;;;;19.50;17.33;;;-0.90;99.90;;;;;;4940651;28;88927;-33
2022/03/07 07:04:50;;;;;;;19.98;16.92;;;-0.80;99.90;;;;;;4940535;28;87609;-31
2022/03/07 07:07:16;;;;;;;23.17;17.73;;;-0.80;99.90;;;;;;4941064;28;90078;-36
2022/03/07 07:09:42;;;;;;;20.85;16.58;;;-0.80;99.90;;;;;;4940350;28;91176;-32
2022/03/07 07:12:08;;;;;;;31.77;19.77;;;-0.70;99.90;;;;;;4941136;28;87536;-33
2022/03/07 07:14:34;;;;;;;23.23;17.98;;;-0.70;99.90;;;;;;4940682;28;88900;-34
2022/03/07 07:17:00;;;;;;;18.92;16.25;;;-0.70;99.90;;;;;;4940244;28;90253;-31
2022/03/07 07:19:26;;;;;;;22.05;17.67;;;-0.60;99.90;;;;;;4940540;28;89080;-31
2022/03/07 07:21:51;;;;;;;26.30;19.17;;;-0.50;99.90;;;;;;4940809;28;90095;-31
2022/03/07 07:24:17;;;;;;;23.45;18.98;;;-0.40;99.90;;;;;;4940471;28;88994;-34
2022/03/07 07:26:43;;;;;;;21.90;18.50;;;-0.30;99.90;;;;;;4940974;28;90205;-32
2022/03/07 07:29:08;;;;;;;21.13;18.05;;;-0.20;99.90;;;;;;4940826;28;89570;-30
2022/03/07 07:31:34;;;;;;;23.02;18.52;;;0.00;99.90;;;;;;4958198;28;89717;-31
2022/03/07 07:33:59;;;;;;;22.85;18.80;;;0.00;99.90;;;;;;4958290;28;89216;-31
2022/03/07 07:36:25;;;;;;;21.10;18.92;;;0.10;99.90;;;;;;4957917;28;92441;-34
2022/03/07 07:38:50;;;;;;;32.00;20.83;;;0.20;99.90;;;;;;4957915;28;90063;-32
2022/03/07 07:41:16;;;;;;;25.67;20.63;;;0.20;99.90;;;;;;4957573;28;87609;-31
2022/03/07 07:43:41;;;;;;;23.10;20.58;;;0.20;99.90;;;;;;4958542;28;90125;-30
2022/03/07 07:46:07;;;;;;;27.83;20.05;;;0.30;99.90;;;;;;4957208;28;91393;-30
2022/03/07 07:48:33;;;;;;;26.08;19.48;;;0.50;99.90;;;;;;4956778;28;89533;-33
2022/03/07 07:50:58;;;;;;;23.77;20.63;;;0.60;99.90;;;;;;4956582;28;88377;-29
2022/03/07 07:53:24;;;;;;;26.08;19.95;;;0.70;99.90;;;;;;4957734;28;89634;-29
2022/03/07 07:55:49;;;;;;;26.10;21.02;;;0.70;99.90;;;;;;4957696;28;90108;-30
2022/03/07 07:58:15;;;;;;;31.92;22.95;;;0.80;99.90;;;;;;4958006;28;88525;-29
2022/03/07 08:00:41;;;;;;;31.58;23.08;;;1.00;99.90;;;;;;4957759;28;87603;-33
2022/03/07 08:03:07;;;;;;;37.13;28.17;;;1.20;99.90;;;;;;4957645;28;89897;-29
2022/03/07 08:05:33;;;;;;;30.00;24.00;;;1.40;99.90;;;;;;4957216;28;90274;-33
2022/03/07 08:07:59;;;;;;;31.27;24.33;;;1.60;99.90;;;;;;4956839;28;89706;-30
2022/03/07 08:10:25;;;;;;;26.83;20.77;;;1.80;99.90;;;;;;4957016;28;90239;-34
2022/03/07 08:12:50;;;;;;;24.60;21.67;;;2.10;99.90;;;;;;4958276;28;89028;-30
2022/03/07 08:15:16;;;;;;;24.50;19.70;;;2.30;99.90;;;;;;4956631;28;90325;-35
2022/03/07 08:17:46;;;;;;;23.40;19.90;;;2.60;99.90;;;;;;4958174;28;89592;-31
2022/03/07 08:20:13;;;;;;;24.45;20.58;;;2.80;99.90;;;;;;4957089;28;89739;-32
2022/03/07 08:22:39;;;;;;;28.40;19.45;;;3.00;99.90;;;;;;4956893;28;89785;-31
2022/03/07 08:25:05;;;;;;;26.38;19.65;;;3.10;99.90;;;;;;4956594;28;90294;-32
2022/03/07 08:27:34;;;;;;;20.83;18.70;;;3.20;99.90;;;;;;4957495;28;89757;-33
2022/03/07 08:30:00;;;;;;;22.52;19.58;;;3.30;99.90;;;;;;4956752;28;89480;-32
2022/03/07 08:32:26;;;;;;;21.13;18.20;;;3.40;99.90;;;;;;4957153;28;90059;-32
2022/03/07 08:34:52;;;;;;;21.50;18.52;;;3.70;99.90;;;;;;4960559;28;90299;-34
2022/03/07 08:37:17;;;;;;;21.23;17.67;;;3.90;99.90;;;;;;4960597;28;89522;-32
2022/03/07 08:39:43;;;;;;;22.35;19.73;;;4.00;99.90;;;;;;4960217;28;90294;-34
2022/03/07 08:42:08;;;;;;;23.20;17.60;;;4.20;99.90;;;;;;4961358;28;89945;-29
2022/03/07 08:44:34;;;;;;;24.75;18.27;;;4.40;99.90;;;;;;4960237;28;90151;-30
2022/03/07 08:46:59;;;;;;;19.52;16.67;;;4.50;99.90;;;;;;4960657;28;87582;-30
2022/03/07 08:49:25;;;;;;;19.67;15.80;;;4.70;99.90;;;;;;4960099;28;90013;-34
2022/03/07 08:51:51;;;;;;;18.35;15.93;;;4.90;99.90;;;;;;4960301;28;89590;-35
2022/03/07 08:54:17;;;;;;;17.88;13.93;;;5.00;99.90;;;;;;4959972;28;89988;-31
2022/03/07 08:56:43;;;;;;;17.33;14.70;;;5.20;99.90;;;;;;4959795;28;89662;-32
2022/03/07 08:59:09;;;;;;;24.20;15.27;;;5.30;99.90;;;;;;4960937;28;90096;-33
2022/03/07 09:01:36;;;;;;;16.00;11.93;;;5.50;99.90;;;;;;4959418;28;88629;-31
2022/03/07 09:04:02;;;;;;;16.88;11.88;;;5.70;99.90;;;;;;4959387;28;90168;-36
2022/03/07 09:06:28;;;;;;;21.00;13.27;;;5.90;99.90;;;;;;4960209;28;89279;-31
2022/03/07 09:08:54;;;;;;;16.80;12.00;;;6.10;99.90;;;;;;4959584;28;87827;-32
2022/03/07 09:11:20;;;;;;;14.63;12.68;;;6.20;99.90;;;;;;4960020;28;87684;-34
2022/03/07 09:13:45;;;;;;;9.10;7.22;;;6.20;99.90;;;;;;4959005;28;91295;-31
2022/03/07 09:16:11;;;;;;;9.45;6.85;;;6.30;99.90;;;;;;4960489;28;90022;-32
2022/03/07 09:18:37;;;;;;;6.85;5.40;;;6.40;99.90;;;;;;4960957;28;87665;-34
2022/03/07 09:21:03;;;;;;;8.82;5.30;;;6.50;99.90;;;;;;4960466;28;87521;-33
2022/03/07 09:23:33;;;;;;;8.18;5.20;;;6.50;99.90;;;;;;4958972;28;90207;-34
2022/03/07 09:25:59;;;;;;;12.40;6.10;;;6.40;99.90;;;;;;4960383;28;89257;-35
2022/03/07 09:28:25;;;;;;;11.40;6.30;;;6.30;99.90;;;;;;4960926;28;87632;-34
2022/03/07 09:30:51;;;;;;;8.50;5.65;;;6.30;99.90;;;;;;4959962;28;89114;-30
2022/03/07 09:33:17;;;;;;;10.40;8.10;;;6.20;99.90;;;;;;4960753;28;89508;-33
2022/03/07 09:35:42;;;;;;;6.30;5.53;;;6.10;99.90;;;;;;4959734;28;89864;-32
2022/03/07 09:38:08;;;;;;;8.60;5.53;;;6.10;99.90;;;;;;4960914;28;90239;-36
2022/03/07 09:40:34;;;;;;;10.75;5.00;;;6.10;99.90;;;;;;4960343;28;87732;-31
2022/03/07 09:42:59;;;;;;;8.90;4.85;;;6.00;99.90;;;;;;4959548;28;90196;-33
2022/03/07 09:45:25;;;;;;;9.82;7.07;;;6.00;99.90;;;;;;4959630;28;88730;-33
2022/03/07 09:47:51;;;;;;;9.20;6.95;;;5.90;99.90;;;;;;4960021;28;89047;-34
2022/03/07 09:50:17;;;;;;;10.98;7.60;;;6.00;99.90;;;;;;4960815;28;91058;-34
2022/03/07 09:52:45;;;;;;;5.22;4.65;;;6.10;99.90;;;;;;4960190;28;90170;-33
2022/03/07 09:55:13;;;;;;;12.30;5.10;;;6.20;99.90;;;;;;4959877;28;89910;-31
2022/03/07 09:57:39;;;;;;;8.02;6.05;;;6.30;99.90;;;;;;4959762;28;87948;-31
2022/03/07 10:00:06;;;;;;;7.45;5.25;;;6.30;99.90;;;;;;4961086;28;89138;-34
2022/03/07 10:02:31;;;;;;;12.10;6.57;;;6.50;99.90;;;;;;4959893;28;91583;-30
2022/03/07 10:05:01;;;;;;;7.57;6.25;;;6.50;99.90;;;;;;4959292;28;89665;-34
2022/03/07 10:07:26;;;;;;;15.75;8.57;;;6.70;99.90;;;;;;4959901;28;87885;-31
2022/03/07 10:10:03;;;;;;;7.45;5.65;;;7.00;99.90;;;;;;4960087;28;87550;-32
2022/03/07 10:12:29;;;;;;;15.90;7.10;;;7.10;99.90;;;;;;4958256;28;90618;-35
2022/03/07 10:14:54;;;;;;;11.48;6.18;;;7.30;99.90;;;;;;4959573;28;88676;-34
2022/03/07 10:17:30;;;;;;;10.85;8.38;;;7.20;99.90;;;;;;4959630;28;89356;-32
2022/03/07 10:20:00;;;;;;;10.90;8.27;;;7.00;99.90;;;;;;4959828;28;89766;-31
2022/03/07 10:22:28;;;;;;;10.32;7.15;;;7.00;99.90;;;;;;4959282;28;90495;-29
2022/03/07 10:25:06;;;;;;;17.63;7.00;;;6.90;99.90;;;;;;4959426;28;89319;-32
2022/03/07 10:27:34;;;;;;;13.02;8.23;;;6.90;99.90;;;;;;4959860;28;88633;-32
2022/03/07 10:30:01;;;;;;;9.18;8.25;;;7.00;99.90;;;;;;4960138;28;89245;-30
2022/03/07 10:32:27;;;;;;;12.85;7.88;;;7.00;99.90;;;;;;4959875;28;89575;-31
2022/03/07 10:34:53;;;;;;;8.50;7.50;;;6.80;99.90;;;;;;4959541;28;90215;-31
2022/03/07 10:37:19;;;;;;;10.75;8.73;;;6.80;99.90;;;;;;4959595;28;90144;-31
2022/03/07 10:39:52;;;;;;;12.40;9.43;;;6.80;99.90;;;;;;4951172;28;87876;-32
2022/03/07 10:42:20;;;;;;;9.90;8.15;;;6.60;99.90;;;;;;4939966;28;90009;-33
2022/03/07 10:44:47;;;;;;;11.93;8.65;;;6.70;99.90;;;;;;4939492;28;88595;-33
2022/03/07 10:47:20;;;;;;;9.68;8.35;;;6.80;99.90;;;;;;4940000;28;88020;-32
2022/03/07 10:49:54;;;;;;;14.82;9.32;;;6.90;99.90;;;;;;4938490;28;89595;-32
2022/03/07 10:52:21;;;;;;;17.27;8.77;;;6.80;99.90;;;;;;4953519;28;89683;-33
2022/03/07 10:54:49;;;;;;;12.00;9.23;;;6.90;99.90;;;;;;4939781;28;90254;-31
2022/03/07 10:57:17;;;;;;;19.92;9.30;;;7.10;99.90;;;;;;4939919;28;87539;-29
2022/03/07 10:59:43;;;;;;;9.23;8.30;;;7.20;99.90;;;;;;4939943;28;88804;-31
2022/03/07 11:02:11;;;;;;;14.05;9.30;;;7.20;99.90;;;;;;4939354;28;90197;-32
2022/03/07 11:04:48;;;;;;;16.08;11.10;;;7.20;99.90;;;;;;4939227;28;89667;-31
2022/03/07 11:07:14;;;;;;;11.45;8.55;;;7.20;99.90;;;;;;4939575;28;89626;-30
2022/03/07 11:09:41;;;;;;;15.77;9.15;;;7.10;99.90;;;;;;4939199;28;88221;-32
2022/03/07 11:12:15;;;;;;;13.70;9.07;;;6.90;99.90;;;;;;4939428;28;91302;-31
2022/03/07 11:14:42;;;;;;;9.38;8.50;;;6.90;99.90;;;;;;4939113;28;89082;-35
2022/03/07 11:17:18;;;;;;;12.50;8.80;;;7.00;99.90;;;;;;4939592;28;89901;-31
2022/03/07 11:19:46;;;;;;;10.50;7.85;;;7.10;99.90;;;;;;4940084;28;87805;-33
2022/03/07 11:22:12;;;;;;;;;;;7.40;99.90;;;;;;4940410;28;90341;-31
2022/03/07 11:24:39;;;;;;;10.48;9.40;;;7.50;99.90;;;;;;4940136;28;89435;-30
2022/03/07 11:27:06;;;;;;;11.10;8.63;;;7.40;99.90;;;;;;4939190;28;88669;-32
2022/03/07 11:29:37;;;;;;;9.23;7.85;;;7.30;99.90;;;;;;4939221;28;87782;-32
2022/03/07 11:32:06;;;;;;;11.88;8.20;;;7.20;99.90;;;;;;4939385;28;90376;-33
2022/03/07 11:34:32;;;;;;;18.60;13.57;;;7.10;99.90;;;;;;4938827;28;91540;-32
2022/03/07 11:36:59;;;;;;;11.05;9.57;;;6.90;99.90;;;;;;4936960;28;87726;-31
2022/03/07 11:39:32;;;;;;;9.68;8.30;;;6.70;99.90;;;;;;4938897;28;89064;-32
2022/03/07 11:42:13;;;;;;;8.98;7.93;;;6.80;99.90;;;;;;4939210;28;90539;-32
2022/03/07 11:44:40;;;;;;;11.25;8.20;;;7.00;99.90;;;;;;4939535;28;89390;-31
2022/03/07 11:47:14;;;;;;;12.18;8.00;;;7.10;99.90;;;;;;4939600;28;88576;-31
2022/03/07 11:49:41;;;;;;;8.07;4.63;;;7.40;99.90;;;;;;4939019;28;88610;-34
2022/03/07 11:52:17;;;;;;;6.22;5.20;;;7.70;99.90;;;;;;4938944;28;90642;-31
2022/03/07 11:54:54;;;;;;;12.57;6.43;;;7.90;99.90;;;;;;4937229;28;89677;-31
2022/03/07 11:57:34;;;;;;;6.25;5.70;;;7.90;99.90;;;;;;4938698;28;88971;-31
2022/03/07 12:00:34;;;;;;;7.68;4.78;;;7.90;99.90;;;;;;4938785;28;88771;-34
2022/03/07 12:03:10;;;;;;;6.70;5.93;;;7.90;99.90;;;;;;4934275;28;90110;-33
2022/03/07 12:05:36;;;;;;;5.65;5.10;;;8.00;99.90;;;;;;4938224;28;89640;-30
2022/03/07 12:08:17;;;;;;;6.72;5.85;;;8.10;99.90;;;;;;4990137;22;88915;-34
2022/03/07 12:10:56;;;;;;;6.85;6.13;;;8.20;99.90;;;;;;4942127;28;88892;-32
2022/03/07 12:13:22;;;;;;;7.10;6.28;;;8.40;99.90;;;;;;4942416;28;90283;-31
2022/03/07 12:15:57;;;;;;;7.28;5.10;;;8.50;98.70;;;;;;4942266;28;89541;-29
2022/03/07 12:18:24;;;;;;;6.70;5.00;;;8.20;99.90;;;;;;4942138;28;88737;-33
2022/03/07 12:20:50;;;;;;;8.30;5.40;;;8.10;94.40;;;;;;4942625;28;87831;-33
2022/03/07 12:23:21;;;;;;;6.43;5.43;;;7.80;98.60;;;;;;4941885;28;90244;-34
2022/03/07 12:25:54;;;;;;;7.28;5.90;;;7.80;99.90;;;;;;4942165;28;90012;-32
2022/03/07 12:28:19;;;;;;;5.53;4.85;;;7.90;99.90;;;;;;4942039;28;88381;-31
2022/03/07 12:30:45;;;;;;;5.57;5.07;;;8.00;92.60;;;;;;4942660;28;88770;-32
2022/03/07 12:33:11;;;;;;;6.32;5.05;;;8.10;94.50;;;;;;4942154;28;90202;-31